Terminal Aerodrome Forecast
Issued by NWS Wilmington, NC

Current Version | Previous Version | Text Only | Print | Product List | Glossary On
Versions: 1 2 3 4 5 6 7 8 9 10 11 12 13 14 15 16 17 18 19
963
FTUS42 KILM 240524
TAFMYR
TAF
KMYR 240524Z 2406/2506 01009KT P6SM SCT050 OVC100
     FM241400 03010KT P6SM SCT050=

USA.gov is the U.S. government's official web portal to all federal, state and local government web resources and services.